Time;durP1;ratioP1;P1;durP2;ratioP2;P2;SDS_P1;SDS_P2;PMS_P1;PMS_P2;Temp;Humidity;BMP_temperature;BMP_pressure;BME280_temperature;BME280_humidity;BME280_pressure;Samples;Min_cycle;Max_cycle;Signal;HPM_P1;HPM_P2
2023/11/15 00:00:06;;;;;;;;;;;;;;;12.99;100.00;97431.41;136933;1278;23041;-73
2023/11/15 00:03:09;;;;;;;22.40;5.20;;;;;;;13.06;100.00;97432.64;136915;1256;22207;-73
2023/11/15 00:06:12;;;;;;;24.60;4.80;;;;;;;13.07;100.00;97428.66;136960;1278;22777;-73
2023/11/15 00:09:15;;;;;;;24.90;5.00;;;;;;;13.13;100.00;97427.98;136957;1278;22175;-73
2023/11/15 00:12:17;;;;;;;;;;;;;;;13.00;100.00;97425.11;136944;1278;22423;-74
2023/11/15 00:15:20;;;;;;;20.30;4.20;;;;;;;12.88;100.00;97423.77;136932;1278;22107;-72
2023/11/15 00:18:23;;;;;;;20.30;3.80;;;;;;;12.73;100.00;97428.88;136932;1259;22099;-73
2023/11/15 00:21:25;;;;;;;22.00;4.10;;;;;;;12.75;100.00;97425.20;136936;1278;22260;-73
2023/11/15 00:24:28;;;;;;;22.30;4.10;;;;;;;12.77;100.00;97428.27;136940;1278;22785;-74
2023/11/15 00:27:31;;;;;;;;;;;;;;;12.69;100.00;97426.43;136942;1278;22350;-73
2023/11/15 00:30:34;;;;;;;20.40;4.30;;;;;;;12.81;100.00;97426.02;136944;1278;22097;-73
2023/11/15 00:33:37;;;;;;;;;;;;;;;12.92;100.00;97431.30;136920;1278;23185;-73
2023/11/15 00:36:42;;;;;;;20.20;4.30;;;;;;;12.84;100.00;97425.23;136931;1278;22430;-73
2023/11/15 00:39:45;;;;;;;19.70;4.10;;;;;;;12.77;100.00;97427.80;136918;1278;22986;-73
2023/11/15 00:42:48;;;;;;;20.10;4.90;;;;;;;12.82;100.00;97422.38;136914;1278;22331;-73
2023/11/15 00:45:51;;;;;;;19.90;3.80;;;;;;;12.80;100.00;97426.13;136962;1278;22061;-74
2023/11/15 00:48:53;;;;;;;22.10;4.40;;;;;;;12.71;100.00;97428.16;136952;1278;22160;-73
2023/11/15 00:51:57;;;;;;;;;;;;;;;12.78;100.00;97422.09;136948;1263;22327;-73
2023/11/15 00:55:00;;;;;;;16.90;3.90;;;;;;;12.96;100.00;97423.08;136910;1278;22103;-73
2023/11/15 00:58:08;;;;;;;20.20;4.10;;;;;;;13.00;100.00;97420.77;136918;1278;22121;-73
2023/11/15 01:01:11;;;;;;;20.20;4.50;;;;;;;13.12;100.00;97420.37;136911;1278;22133;-72
2023/11/15 01:04:13;;;;;;;;;;;;;;;13.19;100.00;97414.45;136919;1278;22367;-71
2023/11/15 01:07:16;;;;;;;20.00;3.50;;;;;;;12.86;100.00;97406.98;136921;1278;22784;-72
2023/11/15 01:10:20;;;;;;;;;;;;;;;12.80;100.00;97401.73;136900;1278;22371;-73
2023/11/15 01:13:23;;;;;;;21.10;4.50;;;;;;;13.00;100.00;97407.93;136887;1278;22853;-72
2023/11/15 01:16:27;;;;;;;19.40;4.10;;;;;;;12.99;100.00;97404.70;136868;1255;22092;-73
2023/11/15 01:19:30;;;;;;;17.90;3.60;;;;;;;12.83;100.00;97401.92;136912;1275;22098;-73
2023/11/15 01:22:32;;;;;;;17.20;3.60;;;;;;;12.80;100.00;97399.10;136894;1278;22142;-73
2023/11/15 01:25:35;;;;;;;;;;;;;;;12.90;100.00;97403.39;136923;1278;22426;-73
2023/11/15 01:28:37;;;;;;;19.10;3.50;;;;;;;12.90;100.00;97405.20;136909;1278;22274;-72
2023/11/15 01:31:40;;;;;;;;;;;;;;;12.77;100.00;97404.95;136905;1259;22401;-72
2023/11/15 01:34:42;;;;;;;13.10;3.00;;;;;;;12.76;100.00;97400.36;136924;1278;22149;-73
2023/11/15 01:37:45;;;;;;;;;;;;;;;12.57;100.00;97398.02;136898;1278;22404;-73
2023/11/15 01:40:48;;;;;;;21.70;4.00;;;;;;;12.57;100.00;97396.52;136901;1278;22110;-73
2023/11/15 01:43:51;;;;;;;19.70;3.60;;;;;;;12.40;100.00;97396.60;136915;1278;22131;-73
2023/11/15 01:46:53;;;;;;;17.40;3.80;;;;;;;12.34;100.00;97397.84;136882;1275;22103;-72
2023/11/15 01:49:56;;;;;;;;;;;;;;;12.42;100.00;97398.52;136902;1264;22400;-73
2023/11/15 01:53:00;;;;;;;20.40;4.20;;;;;;;12.60;100.00;97396.84;136899;1278;22178;-72
2023/11/15 01:56:03;;;;;;;20.50;4.70;;;;;;;12.61;100.00;97398.89;136884;1275;22773;-73
2023/11/15 01:59:06;;;;;;;16.20;3.60;;;;;;;12.57;100.00;97396.46;136876;1278;22179;-72
2023/11/15 02:02:08;;;;;;;;;;;;;;;12.61;100.00;97392.99;136895;1264;22310;-73
2023/11/15 02:05:11;;;;;;;18.70;4.00;;;;;;;12.58;100.00;97395.20;136891;1277;22812;-73
2023/11/15 02:08:13;;;;;;;19.50;3.90;;;;;;;12.52;100.00;97394.42;136901;1278;22099;-73
2023/11/15 02:11:16;;;;;;;;;;;;;;;12.57;100.00;97394.86;136911;1278;22339;-70
2023/11/15 02:14:18;;;;;;;20.50;4.90;;;;;;;12.72;100.00;97393.27;136878;1278;22111;-73
2023/11/15 02:17:45;;;;;;;17.60;3.90;;;;;;;12.76;100.00;97393.33;136896;1278;22852;-73
2023/11/15 02:20:47;;;;;;;19.10;4.10;;;;;;;12.64;100.00;97391.57;136895;1278;22126;-73
2023/11/15 02:23:51;;;;;;;;;;;;;;;12.62;100.00;97399.54;136867;1278;22453;-72
2023/11/15 02:26:53;;;;;;;21.10;3.80;;;;;;;12.55;100.00;97402.25;136881;1278;22117;-73
2023/11/15 02:29:56;;;;;;;23.20;4.80;;;;;;;12.60;100.00;97406.38;136903;1278;22105;-73
2023/11/15 02:32:58;;;;;;;;;;;;;;;12.54;100.00;97404.16;136921;1278;23050;-73
2023/11/15 02:36:01;;;;;;;20.20;4.50;;;;;;;12.54;100.00;97403.36;136873;1278;22150;-73
2023/11/15 02:39:04;;;;;;;17.50;4.20;;;;;;;12.51;100.00;97408.93;136884;1278;22315;-73
2023/11/15 02:42:18;;;;;;;22.70;4.20;;;;;;;12.62;100.00;97406.54;136884;1259;22108;-73
2023/11/15 02:45:21;;;;;;;21.00;4.40;;;;;;;12.48;100.00;97406.88;136857;1278;22830;-73
2023/11/15 02:48:23;;;;;;;;;;;;;;;12.36;100.00;97405.04;136918;1268;22303;-73
2023/11/15 02:51:26;;;;;;;20.60;4.40;;;;;;;12.44;100.00;97406.75;136896;1278;22770;-73
2023/11/15 02:54:28;;;;;;;15.40;3.90;;;;;;;12.44;100.00;97404.45;136847;1278;22863;-73
2023/11/15 02:57:31;;;;;;;;;;;;;;;12.51;100.00;97400.52;136916;1278;22366;-73
2023/11/15 03:00:34;;;;;;;24.00;4.60;;;;;;;12.52;100.00;97403.23;136859;1278;22196;-73
2023/11/15 03:03:37;;;;;;;17.00;3.60;;;;;;;12.53;100.00;97406.15;136869;1278;22123;-73
2023/11/15 03:06:43;;;;;;;;;;;;;;;12.59;100.00;97403.85;136889;1278;22376;-73
2023/11/15 03:09:45;;;;;;;17.50;3.60;;;;;;;12.62;100.00;97405.88;136880;1278;22111;-73
2023/11/15 03:12:48;;;;;;;15.30;3.80;;;;;;;12.83;100.00;97412.99;136862;1278;22130;-73
2023/11/15 03:15:51;;;;;;;;;;;;;;;12.92;100.00;97411.53;136890;1278;22374;-72
2023/11/15 03:18:53;;;;;;;19.00;4.40;;;;;;;12.84;100.00;97414.91;136883;1275;22375;-72
2023/11/15 03:21:56;;;;;;;;;;;;;;;12.95;100.00;97416.48;136884;1278;22341;-72
2023/11/15 03:24:58;;;;;;;16.10;3.20;;;;;;;13.07;100.00;97418.20;136883;1278;22770;-73
2023/11/15 03:28:01;;;;;;;;;;;;;;;13.06;100.00;97421.94;136874;1278;22358;-73
2023/11/15 03:31:04;;;;;;;17.80;3.20;;;;;;;12.98;100.00;97418.69;136865;1278;22976;-71
2023/11/15 03:34:07;;;;;;;15.20;3.10;;;;;;;13.12;100.00;97424.58;136863;1278;22897;-73
2023/11/15 03:37:11;;;;;;;17.20;3.80;;;;;;;12.91;100.00;97421.40;136867;1259;22093;-71
2023/11/15 03:40:14;;;;;;;;;;;;;;;12.79;100.00;97424.74;136892;1278;22356;-72
2023/11/15 03:43:16;;;;;;;12.20;3.00;;;;;;;12.82;100.00;97429.20;136862;1278;22084;-73
2023/11/15 03:46:19;;;;;;;;;;;;;;;12.89;100.00;97431.59;136918;1278;22360;-72
2023/11/15 03:49:21;;;;;;;9.40;2.60;;;;;;;12.91;100.00;97428.98;136903;1278;22163;-73
2023/11/15 03:52:24;;;;;;;;;;;;;;;12.92;100.00;97428.64;136870;1278;22360;-73
2023/11/15 03:55:28;;;;;;;14.10;3.20;;;;;;;12.88;100.00;97441.38;136886;1262;22095;-73
2023/11/15 03:58:30;;;;;;;12.00;3.50;;;;;;;12.75;100.00;97436.59;136877;1278;22090;-72
2023/11/15 04:01:33;;;;;;;;;;;;;;;12.79;100.00;97433.39;136898;1278;22328;-72
2023/11/15 04:04:35;;;;;;;14.40;3.30;;;;;;;12.72;100.00;97436.15;136902;1278;22149;-73
2023/11/15 04:07:38;;;;;;;11.00;2.80;;;;;;;12.74;100.00;97432.48;136890;1278;22126;-72
2023/11/15 04:10:41;;;;;;;15.10;3.00;;;;;;;12.68;100.00;97436.90;136870;1278;22133;-73
2023/11/15 04:13:43;;;;;;;;;;;;;;;12.50;100.00;97441.48;136882;1278;23167;-74
2023/11/15 04:16:46;;;;;;;14.70;3.40;;;;;;;12.58;100.00;97438.27;136908;1278;22082;-73
2023/11/15 04:19:49;;;;;;;;;;;;;;;12.69;100.00;97442.02;136887;1278;23276;-73
2023/11/15 04:22:51;;;;;;;12.90;3.10;;;;;;;12.71;100.00;97435.70;136902;1278;22090;-73
2023/11/15 04:25:55;;;;;;;;;;;;;;;12.68;100.00;97436.45;136912;1278;22432;-74
2023/11/15 04:28:57;;;;;;;12.90;3.30;;;;;;;12.66;100.00;97437.04;136885;1262;22104;-73
2023/11/15 04:32:00;;;;;;;;;;;;;;;12.55;100.00;97435.00;136894;1278;23008;-72
2023/11/15 04:35:03;;;;;;;9.50;3.00;;;;;;;12.58;100.00;97440.80;136882;1278;22143;-68
2023/11/15 04:38:09;;;;;;;14.80;3.70;;;;;;;12.58;100.00;97433.92;136867;1278;22082;-74
2023/11/15 04:41:12;;;;;;;9.30;2.70;;;;;;;12.71;100.00;97441.27;136897;1259;22117;-74
2023/11/15 04:44:14;;;;;;;9.80;3.00;;;;;;;12.73;100.00;97443.98;136867;1278;22577;-73
2023/11/15 04:47:18;;;;;;;12.60;3.00;;;;;;;12.76;100.00;97443.67;136874;1278;22118;-74
2023/11/15 04:50:22;;;;;;;;;;;;;;;12.88;100.00;97447.67;136891;1278;22463;-74
2023/11/15 04:53:25;;;;;;;12.00;3.40;;;;;;;12.78;100.00;97450.48;136865;1278;22099;-74
2023/11/15 04:56:27;;;;;;;14.40;3.50;;;;;;;12.63;100.00;97449.06;136870;1275;22090;-74
2023/11/15 04:59:30;;;;;;;;;;;;;;;12.67;100.00;97448.52;136896;1278;22330;-74
2023/11/15 05:02:33;;;;;;;13.00;3.40;;;;;;;12.76;100.00;97450.82;136917;1278;23029;-73
2023/11/15 05:05:35;;;;;;;12.60;3.30;;;;;;;12.78;100.00;97453.44;136913;1278;22558;-74
2023/11/15 05:08:38;;;;;;;;;;;;;;;12.87;100.00;97455.67;136877;1278;22426;-73
2023/11/15 05:11:40;;;;;;;14.50;3.40;;;;;;;13.19;100.00;97454.81;136888;1262;22254;-73
2023/11/15 05:14:43;;;;;;;;;;;;;;;13.07;100.00;97456.92;136878;1259;22357;-73
2023/11/15 05:17:45;;;;;;;17.60;4.20;;;;;;;12.86;100.00;97458.00;136877;1278;22264;-74
2023/11/15 05:20:48;;;;;;;;;;;;;;;13.04;100.00;97459.02;136887;1278;22354;-74
2023/11/15 05:23:50;;;;;;;13.70;3.60;;;;;;;13.08;100.00;97457.20;136893;1278;22097;-73
2023/11/15 05:26:55;;;;;;;;;;;;;;;13.01;100.00;97460.18;136888;1267;22312;-73
2023/11/15 05:29:57;;;;;;;18.50;4.70;;;;;;;13.00;100.00;97461.47;136874;1278;22062;-73
2023/11/15 05:33:01;;;;;;;18.20;4.90;;;;;;;12.96;100.00;97464.27;136864;1278;22199;-74
2023/11/15 05:36:03;;;;;;;14.30;3.60;;;;;;;12.76;100.00;97467.30;136845;1261;22108;-74
2023/11/15 05:39:06;;;;;;;;;;;;;;;12.85;100.00;97466.39;136901;1267;22524;-74
2023/11/15 05:42:09;;;;;;;9.20;3.10;;;;;;;12.72;100.00;97465.11;136859;1278;22886;-73
2023/11/15 05:45:11;;;;;;;12.80;3.40;;;;;;;12.64;100.00;97466.28;136891;1278;22288;-74
2023/11/15 05:48:14;;;;;;;;;;;;;;;12.61;100.00;97470.94;136887;1278;22383;-74
2023/11/15 05:51:17;;;;;;;12.70;3.30;;;;;;;12.71;100.00;97474.30;136879;1278;22105;-73
2023/11/15 05:54:19;;;;;;;;;;;;;;;12.73;100.00;97473.95;136897;1278;22390;-74
2023/11/15 05:57:22;;;;;;;17.40;3.80;;;;;;;12.65;100.00;97477.86;136883;1262;22096;-74
2023/11/15 06:00:24;;;;;;;15.90;4.20;;;;;;;12.61;100.00;97480.46;136873;1268;22108;-73
2023/11/15 06:03:26;;;;;;;18.60;4.00;;;;;;;12.65;100.00;97483.56;136903;1278;22104;-73
2023/11/15 06:06:29;;;;;;;;;;;;;;;12.57;100.00;97488.52;136890;1278;23170;-73
2023/11/15 06:09:32;;;;;;;11.20;3.60;;;;;;;12.61;100.00;97492.23;136892;1278;22133;-72
2023/11/15 06:12:35;;;;;;;13.50;3.50;;;;;;;12.54;100.00;97492.52;136894;1278;22215;-72
2023/11/15 06:15:37;;;;;;;17.60;4.40;;;;;;;12.60;100.00;97495.08;136873;1278;22145;-74
2023/11/15 06:18:40;;;;;;;;;;;;;;;12.65;100.00;97493.92;136870;1259;22389;-73
2023/11/15 06:21:42;;;;;;;15.50;3.80;;;;;;;12.68;100.00;97499.11;136878;1278;22056;-73
2023/11/15 06:24:45;;;;;;;;;;;;;;;12.75;100.00;97502.16;136907;1278;22437;-74
2023/11/15 06:27:47;;;;;;;15.80;3.50;;;;;;;12.69;100.00;97508.35;136861;1278;22163;-71
2023/11/15 06:30:50;;;;;;;;;;;;;;;12.68;100.00;97510.55;136921;1279;22379;-73
2023/11/15 06:33:52;;;;;;;14.10;3.10;;;;;;;12.52;100.00;97513.84;136893;1278;23039;-74
2023/11/15 06:36:55;;;;;;;;;;;;;;;12.41;100.00;97514.29;136900;1278;22407;-74
2023/11/15 06:39:58;;;;;;;;;;;;;;;12.36;100.00;97519.18;136921;1278;22293;-74
2023/11/15 06:43:01;;;;;;;11.50;2.90;;;;;;;12.43;100.00;97520.31;136897;1278;22096;-74
2023/11/15 06:46:03;;;;;;;12.50;3.00;;;;;;;12.55;100.00;97523.46;136891;1278;22826;-74
2023/11/15 06:49:06;;;;;;;;;;;;;;;12.48;100.00;97527.86;136922;1260;22343;-73
2023/11/15 06:52:09;;;;;;;5.80;2.30;;;;;;;12.48;100.00;97528.96;136867;1278;22867;-73
2023/11/15 06:55:12;;;;;;;7.20;2.30;;;;;;;12.37;100.00;97538.52;136892;1267;22111;-73
2023/11/15 06:58:15;;;;;;;9.30;2.30;;;;;;;12.58;100.00;97538.41;136890;1278;22776;-73
2023/11/15 07:01:18;;;;;;;11.60;2.80;;;;;;;12.65;100.00;97539.38;136910;1278;22113;-74
2023/11/15 07:04:21;;;;;;;;;;;;;;;12.58;100.00;97539.83;136881;1275;22378;-72
2023/11/15 07:07:25;;;;;;;15.90;4.00;;;;;;;12.50;100.00;97536.69;136905;1278;22071;-72
2023/11/15 07:10:29;;;;;;;11.40;3.30;;;;;;;12.50;100.00;97543.64;136908;1278;22104;-73
2023/11/15 07:13:32;;;;;;;11.80;3.20;;;;;;;12.30;100.00;97545.93;136909;1278;22253;-74
2023/11/15 07:16:34;;;;;;;;;;;;;;;12.49;100.00;97547.95;136888;1278;22333;-73
2023/11/15 07:19:38;;;;;;;9.90;3.10;;;;;;;12.49;100.00;97551.98;136898;1258;22195;-74
2023/11/15 07:22:40;;;;;;;16.00;4.40;;;;;;;12.31;100.00;97549.53;136932;1278;22096;-73
2023/11/15 07:25:43;;;;;;;;;;;;;;;12.40;100.00;97549.11;136911;1278;23122;-73
2023/11/15 07:28:47;;;;;;;11.20;3.10;;;;;;;12.42;100.00;97549.27;136904;1262;22234;-74
2023/11/15 07:31:51;;;;;;;11.10;2.90;;;;;;;12.59;100.00;97552.20;136903;1278;22088;-73
2023/11/15 07:34:54;;;;;;;9.10;2.90;;;;;;;12.78;100.00;97557.14;136903;1278;22102;-74
2023/11/15 07:37:57;;;;;;;13.00;3.70;;;;;;;12.75;100.00;97559.13;136906;1278;22748;-74
2023/11/15 07:41:08;;;;;;;17.90;4.90;;;;;;;12.66;100.00;97563.30;132452;1278;5656296;-71
2023/11/15 07:44:15;;;;;;;17.00;4.50;;;;;;;12.63;100.00;97566.73;136878;1278;22140;-73
2023/11/15 07:47:18;;;;;;;22.00;6.80;;;;;;;12.51;100.00;97569.52;136942;1278;22078;-73
2023/11/15 07:50:20;;;;;;;;;;;;;;;12.73;100.00;97569.65;136959;1278;22430;-73
2023/11/15 07:53:23;;;;;;;14.40;3.60;;;;;;;12.86;100.00;97573.39;136937;1267;22308;-74
2023/11/15 07:56:26;;;;;;;;;;;;;;;12.78;100.00;97573.84;136931;1278;22337;-73
2023/11/15 07:59:29;;;;;;;9.50;3.00;;;;;;;12.81;100.00;97576.83;136931;1278;22852;-74
2023/11/15 08:02:31;;;;;;;10.70;3.50;;;;;;;12.79;100.00;97577.41;136941;1278;22084;-73
2023/11/15 08:05:36;;;;;;;;;;;;;;;12.87;100.00;97586.83;136942;1278;22428;-73
2023/11/15 08:08:38;;;;;;;16.60;4.90;;;;;;;12.86;100.00;97586.78;136919;1278;22150;-74
2023/11/15 08:11:41;;;;;;;;;;;;;;;12.88;100.00;97589.80;136930;1278;22529;-73
2023/11/15 08:14:43;;;;;;;16.60;4.10;;;;;;;12.97;100.00;97597.04;136934;1278;22848;-74
2023/11/15 08:17:46;;;;;;;;;;;;;;;12.83;100.00;97599.15;136933;1278;22359;-73
2023/11/15 08:20:50;;;;;;;17.80;5.00;;;;;;;12.81;100.00;97601.95;136927;1278;22094;-73
2023/11/15 08:23:52;;;;;;;18.90;5.00;;;;;;;12.60;100.00;97606.44;136931;1278;22922;-73
2023/11/15 08:26:55;;;;;;;;;;;;;;;12.59;100.00;97609.46;136932;1278;23150;-73
2023/11/15 08:29:57;;;;;;;15.30;3.80;;;;;;;12.59;100.00;97611.12;136923;1261;22064;-74
2023/11/15 08:33:00;;;;;;;;;;;;;;;12.60;100.00;97618.34;136962;1278;22317;-73
2023/11/15 08:36:02;;;;;;;18.10;4.80;;;;;;;12.83;100.00;97617.04;136933;1278;22111;-73
2023/11/15 08:39:11;;;;;;;;;;;;;;;12.86;100.00;97622.92;136957;1278;22429;-72
2023/11/15 08:42:14;;;;;;;15.20;4.20;;;;;;;12.93;100.00;97630.55;136932;1278;22288;-73
2023/11/15 08:45:17;;;;;;;17.20;3.90;;;;;;;12.76;100.00;97635.05;136928;1278;22091;-73
2023/11/15 08:48:19;;;;;;;13.60;3.30;;;;;;;12.85;100.00;97644.58;136940;1278;22166;-73
2023/11/15 08:51:23;;;;;;;11.80;3.50;;;;;;;12.89;100.00;97645.41;136932;1278;22837;-73
2023/11/15 08:54:25;;;;;;;12.30;3.30;;;;;;;12.82;100.00;97645.52;136965;1278;22172;-73
2023/11/15 08:57:30;;;;;;;14.70;3.40;;;;;;;12.79;100.00;97650.19;136918;1278;22859;-72
2023/11/15 09:00:33;;;;;;;14.20;3.90;;;;;;;12.85;100.00;97651.78;136916;1278;22824;-73
2023/11/15 09:03:38;;;;;;;13.90;4.00;;;;;;;12.83;100.00;97658.42;136958;1278;22166;-73
2023/11/15 09:06:41;;;;;;;12.80;3.30;;;;;;;12.92;100.00;97659.38;136954;1278;22159;-72
2023/11/15 09:09:43;;;;;;;;;;;;;;;13.00;100.00;97663.95;136939;1278;22422;-73
2023/11/15 09:12:49;;;;;;;12.90;3.40;;;;;;;13.17;100.00;97660.81;136951;1278;22074;-73
2023/11/15 09:15:52;;;;;;;15.60;3.70;;;;;;;13.15;100.00;97666.77;136946;1278;22569;-73
2023/11/15 09:18:58;;;;;;;10.00;3.10;;;;;;;13.23;100.00;97668.88;136949;1278;22097;-74
2023/11/15 09:22:05;;;;;;;14.80;3.80;;;;;;;13.16;100.00;97665.14;136948;1278;22086;-73
2023/11/15 09:25:11;;;;;;;10.80;3.40;;;;;;;13.45;100.00;97665.60;136959;1257;22098;-74
2023/11/15 09:28:14;;;;;;;14.00;3.50;;;;;;;13.54;100.00;97673.33;136953;1278;22962;-73
2023/11/15 09:31:17;;;;;;;10.60;3.10;;;;;;;13.56;100.00;97670.83;136967;1278;22150;-73
2023/11/15 09:34:20;;;;;;;7.00;2.30;;;;;;;13.67;100.00;97675.70;136946;1259;22576;-72
2023/11/15 09:37:22;;;;;;;12.60;3.00;;;;;;;13.71;100.00;97678.13;136942;1278;22188;-74
2023/11/15 09:40:25;;;;;;;9.90;2.90;;;;;;;13.43;100.00;97682.64;136943;1278;22123;-73
2023/11/15 09:43:28;;;;;;;;;;;;;;;13.43;100.00;97683.48;136954;1268;22429;-72
2023/11/15 09:46:31;;;;;;;10.10;2.70;;;;;;;13.66;100.00;97681.77;136955;1278;22346;-74
2023/11/15 09:49:33;;;;;;;;;;;;;;;13.91;100.00;97683.66;136927;1278;23114;-73
2023/11/15 09:52:37;;;;;;;12.50;3.50;;;;;;;13.81;100.00;97693.85;136958;1261;22158;-74
2023/11/15 09:55:39;;;;;;;11.70;3.20;;;;;;;13.72;100.00;97694.67;136952;1278;22088;-73
2023/11/15 09:58:42;;;;;;;;;;;;;;;13.78;100.00;97697.69;136982;1278;22363;-73
2023/11/15 10:01:45;;;;;;;12.50;3.20;;;;;;;13.76;100.00;97701.05;136967;1278;22141;-73
2023/11/15 10:04:47;;;;;;;10.30;3.00;;;;;;;13.93;100.00;97701.02;136982;1278;22904;-73
2023/11/15 10:07:51;;;;;;;10.70;2.70;;;;;;;14.01;100.00;97702.80;136980;1278;22231;-73
2023/11/15 10:10:53;;;;;;;9.80;2.60;;;;;;;14.08;100.00;97702.09;136945;1278;22094;-73
2023/11/15 10:13:57;;;;;;;8.50;2.70;;;;;;;14.39;100.00;97699.39;136972;1278;22110;-73
2023/11/15 10:17:03;;;;;;;8.90;2.50;;;;;;;14.44;100.00;97708.63;136946;1278;22160;-73
2023/11/15 10:20:05;;;;;;;9.00;2.60;;;;;;;14.42;100.00;97707.00;136931;1278;22198;-74
2023/11/15 10:23:12;;;;;;;9.20;2.50;;;;;;;14.05;100.00;97709.29;136970;1260;22149;-73
2023/11/15 10:26:16;;;;;;;10.30;2.80;;;;;;;14.25;100.00;97707.79;136942;1273;22105;-73
2023/11/15 10:29:19;;;;;;;8.20;2.50;;;;;;;14.30;100.00;97707.30;136936;1278;22098;-73
2023/11/15 10:32:23;;;;;;;11.90;3.30;;;;;;;14.57;100.00;97704.92;136968;1278;22125;-74
2023/11/15 10:35:27;;;;;;;8.40;2.70;;;;;;;14.69;100.00;97709.60;136944;1278;22120;-74
2023/11/15 10:38:29;;;;;;;9.50;2.60;;;;;;;14.84;100.00;97711.05;136940;1278;22115;-73
2023/11/15 10:41:34;;;;;;;;;;;;;;;14.69;100.00;97714.69;136981;1278;22356;-73
2023/11/15 10:44:37;;;;;;;9.10;2.90;;;;;;;14.54;100.00;97718.18;136966;1278;22121;-74
2023/11/15 10:47:40;;;;;;;6.20;2.30;;;;;;;14.39;100.00;97726.09;136947;1278;22275;-73
2023/11/15 10:50:42;;;;;;;;;;;;;;;14.49;100.00;97724.47;136985;1278;23237;-74
2023/11/15 10:53:45;;;;;;;12.40;2.60;;;;;;;14.38;100.00;97727.27;136974;1278;23000;-73
2023/11/15 10:56:49;;;;;;;8.90;2.30;;;;;;;14.44;100.00;97729.55;136946;1278;22903;-73
2023/11/15 10:59:52;;;;;;;8.60;2.30;;;;;;;14.43;100.00;97729.77;136945;1278;22092;-73
2023/11/15 11:02:55;;;;;;;4.10;1.30;;;;;;;14.28;100.00;97729.27;136958;1278;22141;-73
2023/11/15 11:05:59;;;;;;;5.60;1.50;;;;;;;14.22;100.00;97732.85;136950;1278;22328;-73
2023/11/15 11:09:09;;;;;;;6.20;1.80;;;;;;;14.27;100.00;97735.85;136961;1261;22234;-73
2023/11/15 11:12:12;;;;;;;5.80;1.40;;;;;;;14.30;100.00;97742.66;136958;1275;22177;-73
2023/11/15 11:15:15;;;;;;;4.40;1.50;;;;;;;14.17;100.00;97745.23;136954;1259;22085;-73
2023/11/15 11:18:18;;;;;;;;;;;;;;;14.10;100.00;97752.20;136958;1278;22340;-73
2023/11/15 11:21:22;;;;;;;;;;;;;;;13.90;100.00;97760.88;136954;1278;22336;-73
2023/11/15 11:24:24;;;;;;;3.90;1.40;;;;;;;13.79;100.00;97768.04;136942;1278;22569;-73
2023/11/15 11:27:27;;;;;;;;;;;;;;;13.83;100.00;97773.11;136973;1278;23110;-73
2023/11/15 11:30:31;;;;;;;3.80;1.40;;;;;;;13.61;100.00;97773.52;136961;1260;22242;-72
2023/11/15 11:33:34;;;;;;;5.20;1.30;;;;;;;13.62;100.00;97780.64;136974;1278;22990;-73
2023/11/15 11:36:36;;;;;;;5.30;1.30;;;;;;;13.69;100.00;97781.06;136966;1278;22492;-73
2023/11/15 11:39:39;;;;;;;4.10;1.00;;;;;;;13.68;100.00;97785.74;136966;1275;22169;-73
2023/11/15 11:42:43;;;;;;;;;;;;;;;13.27;100.00;97791.85;136965;1278;22357;-72
2023/11/15 11:45:46;;;;;;;5.90;1.40;;;;;;;13.15;100.00;97796.90;136965;1278;22155;-73
2023/11/15 11:48:59;;;;;;;;;;;;;;;;;;;;;
2023/11/15 11:52:02;;;;;;;6.30;1.80;;;;;;;13.46;100.00;97806.85;136990;1259;22100;-73
2023/11/15 11:55:05;;;;;;;6.40;2.00;;;;;;;13.42;100.00;97802.80;136941;1278;22140;-73
2023/11/15 11:58:07;;;;;;;7.60;1.80;;;;;;;13.39;100.00;97810.60;136955;1278;22742;-73
2023/11/15 12:01:11;;;;;;;;;;;;;;;13.52;100.00;97804.35;136966;1278;22418;-73
2023/11/15 12:04:16;;;;;;;9.80;2.00;;;;;;;13.42;100.00;97807.50;136958;1278;22139;-73
2023/11/15 12:07:19;;;;;;;;;;;;;;;13.24;100.00;97827.16;137004;1278;23072;-73
2023/11/15 12:10:22;;;;;;;6.60;1.60;;;;;;;13.19;100.00;97817.25;136987;1278;22266;-73
2023/11/15 12:13:25;;;;;;;8.70;2.00;;;;;;;13.17;100.00;97833.05;136989;1278;22134;-73
2023/11/15 12:16:29;;;;;;;;;;;;;;;13.46;100.00;97822.66;136985;1278;22393;-73
2023/11/15 12:19:31;;;;;;;8.00;2.30;;;;;;;13.70;100.00;97814.70;136999;1278;22312;-73
2023/11/15 12:22:34;;;;;;;;;;;;;;;13.65;100.00;97821.14;137017;1278;22348;-73
2023/11/15 12:25:37;;;;;;;8.30;2.50;;;;;;;13.68;100.00;97822.48;136958;1278;22200;-74
2023/11/15 12:28:39;;;;;;;;;;;;;;;13.49;100.00;97827.41;136987;1278;23169;-73
2023/11/15 12:31:42;;;;;;;9.80;2.60;;;;;;;13.56;100.00;97825.10;136973;1278;22156;-73
2023/11/15 12:34:45;;;;;;;9.50;2.20;;;;;;;13.40;100.00;97830.21;136984;1278;22128;-73
2023/11/15 12:37:49;;;;;;;9.70;2.40;;;;;;;13.41;100.00;97833.63;136982;1278;22990;-74
2023/11/15 12:40:53;;;;;;;9.40;2.50;;;;;;;13.54;100.00;97831.38;136982;1278;22168;-73
2023/11/15 12:43:56;;;;;;;11.20;2.60;;;;;;;13.18;100.00;97838.56;136988;1278;22821;-73
2023/11/15 12:47:00;;;;;;;;;;;;;;;13.21;100.00;97840.91;136996;1278;22392;-74
2023/11/15 12:50:24;;;;;;;11.40;2.00;;;;;;;13.08;100.00;97852.91;136978;1278;22823;-74
2023/11/15 12:53:30;;;;;;;6.70;1.90;;;;;;;13.07;100.00;97858.46;136973;1278;22907;-71
2023/11/15 12:56:33;;;;;;;7.20;2.00;;;;;;;12.97;100.00;97857.76;136976;1275;22083;-73
2023/11/15 12:59:37;;;;;;;8.20;2.30;;;;;;;12.92;100.00;97857.98;136952;1278;22150;-73
2023/11/15 13:02:40;;;;;;;8.80;2.10;;;;;;;12.88;100.00;97858.66;136971;1259;22143;-73
2023/11/15 13:05:42;;;;;;;;;;;;;;;12.91;100.00;97858.25;136975;1278;22344;-72
2023/11/15 13:08:45;;;;;;;8.40;2.10;;;;;;;12.93;100.00;97852.89;136972;1278;22140;-73
2023/11/15 13:11:47;;;;;;;;;;;;;;;13.00;100.00;97850.50;136965;1278;22314;-74
2023/11/15 13:14:50;;;;;;;7.10;2.00;;;;;;;12.96;100.00;97853.63;136951;1278;22099;-73
2023/11/15 13:17:52;;;;;;;;;;;;;;;12.88;100.00;97854.69;136986;1278;23001;-73
2023/11/15 13:20:57;;;;;;;7.10;1.80;;;;;;;12.87;100.00;97865.30;136980;1260;22189;-73
2023/11/15 13:24:00;;;;;;;7.40;2.00;;;;;;;12.89;100.00;97885.11;136973;1278;22116;-73
2023/11/15 13:27:02;;;;;;;;;;;;;;;12.92;100.00;97881.67;136993;1278;22518;-74
2023/11/15 13:30:05;;;;;;;10.30;2.30;;;;;;;12.69;100.00;97886.79;136973;1268;22097;-73
2023/11/15 13:33:08;;;;;;;;;;;;;;;12.69;100.00;97897.35;136962;1278;22372;-74
2023/11/15 13:36:11;;;;;;;7.70;2.20;;;;;;;12.66;100.00;97903.75;136958;1278;22130;-73
2023/11/15 13:39:15;;;;;;;14.60;2.80;;;;;;;12.59;100.00;97912.01;136968;1278;22157;-74
2023/11/15 13:42:20;;;;;;;10.60;2.60;;;;;;;12.60;100.00;97920.55;136950;1278;22921;-73
2023/11/15 13:45:27;;;;;;;10.80;2.50;;;;;;;12.68;100.00;97914.41;136978;1278;22201;-74
2023/11/15 13:48:29;;;;;;;8.60;2.50;;;;;;;12.70;100.00;97922.70;136980;1278;22129;-74
2023/11/15 13:51:32;;;;;;;13.70;2.40;;;;;;;12.49;100.00;97932.42;136968;1278;22583;-73
2023/11/15 13:54:35;;;;;;;9.10;2.50;;;;;;;12.47;100.00;97944.52;136960;1278;22182;-73
2023/11/15 13:57:38;;;;;;;;;;;;;;;12.51;100.00;97935.96;136989;1278;22739;-74
2023/11/15 14:00:41;;;;;;;10.30;2.50;;;;;;;12.50;100.00;97948.33;137006;1259;22155;-73
2023/11/15 14:03:43;;;;;;;10.20;2.80;;;;;;;12.24;100.00;97955.73;136981;1278;22160;-74
2023/11/15 14:06:47;;;;;;;12.20;3.00;;;;;;;12.13;100.00;97957.68;136972;1278;22900;-74
2023/11/15 14:09:49;;;;;;;10.50;2.90;;;;;;;12.25;100.00;97963.33;136960;1278;22108;-73
2023/11/15 14:12:52;;;;;;;;;;;;;;;12.08;100.00;97972.83;137002;1259;22299;-71
2023/11/15 14:15:54;;;;;;;9.50;2.70;;;;;;;12.03;100.00;97977.59;136989;1278;22175;-72
2023/11/15 14:18:57;;;;;;;;;;;;;;;11.97;100.00;97984.34;136977;1278;22360;-73